sensor_id;sensor_type;location;lat;lon;timestamp;temperature;humidity
20866;DHT22;10593;48.398;10.698;2023-03-01T00:01:10;4.10;47.20
20866;DHT22;10593;48.398;10.698;2023-03-01T00:06:13;4.10;47.30
20866;DHT22;10593;48.398;10.698;2023-03-01T00:08:39;4.00;47.30
20866;DHT22;10593;48.398;10.698;2023-03-01T00:11:23;4.00;47.30
20866;DHT22;10593;48.398;10.698;2023-03-01T00:26:53;4.10;47.50
20866;DHT22;10593;48.398;10.698;2023-03-01T00:29:22;4.00;47.40
20866;DHT22;10593;48.398;10.698;2023-03-01T00:31:49;4.00;47.40
20866;DHT22;10593;48.398;10.698;2023-03-01T00:34:14;4.10;47.50
20866;DHT22;10593;48.398;10.698;2023-03-01T00:36:40;4.00;47.40
20866;DHT22;10593;48.398;10.698;2023-03-01T00:39:10;4.00;47.40
20866;DHT22;10593;48.398;10.698;2023-03-01T00:41:37;4.00;47.50
20866;DHT22;10593;48.398;10.698;2023-03-01T00:44:03;4.00;47.50
20866;DHT22;10593;48.398;10.698;2023-03-01T00:46:29;4.10;47.60
20866;DHT22;10593;48.398;10.698;2023-03-01T00:48:55;4.00;47.50
20866;DHT22;10593;48.398;10.698;2023-03-01T00:51:26;4.10;47.60
20866;DHT22;10593;48.398;10.698;2023-03-01T00:53:55;4.00;47.50
20866;DHT22;10593;48.398;10.698;2023-03-01T00:56:22;4.00;47.50
20866;DHT22;10593;48.398;10.698;2023-03-01T00:58:48;4.10;47.60
20866;DHT22;10593;48.398;10.698;2023-03-01T01:01:21;4.10;47.60
20866;DHT22;10593;48.398;10.698;2023-03-01T01:04:01;4.00;47.50
20866;DHT22;10593;48.398;10.698;2023-03-01T01:06:31;4.10;47.60
20866;DHT22;10593;48.398;10.698;2023-03-01T01:09:03;4.10;47.60
20866;DHT22;10593;48.398;10.698;2023-03-01T01:11:31;4.00;47.50
20866;DHT22;10593;48.398;10.698;2023-03-01T01:13:57;4.00;47.50
20866;DHT22;10593;48.398;10.698;2023-03-01T01:16:25;4.10;47.80
20866;DHT22;10593;48.398;10.698;2023-03-01T01:18:53;4.10;47.80
20866;DHT22;10593;48.398;10.698;2023-03-01T01:21:20;4.00;47.70
20866;DHT22;10593;48.398;10.698;2023-03-01T01:23:48;4.00;47.80
20866;DHT22;10593;48.398;10.698;2023-03-01T01:26:30;4.10;47.80
20866;DHT22;10593;48.398;10.698;2023-03-01T01:28:58;4.10;47.90
20866;DHT22;10593;48.398;10.698;2023-03-01T01:31:26;4.10;47.80
20866;DHT22;10593;48.398;10.698;2023-03-01T01:33:54;4.00;47.80
20866;DHT22;10593;48.398;10.698;2023-03-01T01:36:21;4.00;47.80
20866;DHT22;10593;48.398;10.698;2023-03-01T01:38:47;4.00;47.80
20866;DHT22;10593;48.398;10.698;2023-03-01T01:41:14;4.00;47.90
20866;DHT22;10593;48.398;10.698;2023-03-01T01:43:43;4.00;47.90
20866;DHT22;10593;48.398;10.698;2023-03-01T01:46:20;4.10;48.00
20866;DHT22;10593;48.398;10.698;2023-03-01T01:49:01;4.00;48.00
20866;DHT22;10593;48.398;10.698;2023-03-01T01:51:38;4.10;48.00
20866;DHT22;10593;48.398;10.698;2023-03-01T01:54:12;4.10;48.00
20866;DHT22;10593;48.398;10.698;2023-03-01T01:56:44;4.00;47.90
20866;DHT22;10593;48.398;10.698;2023-03-01T01:59:25;4.00;47.90
20866;DHT22;10593;48.398;10.698;2023-03-01T02:01:53;4.00;47.80
20866;DHT22;10593;48.398;10.698;2023-03-01T02:04:20;4.00;47.80
20866;DHT22;10593;48.398;10.698;2023-03-01T02:07:08;4.00;47.80
20866;DHT22;10593;48.398;10.698;2023-03-01T02:09:43;4.00;47.90
20866;DHT22;10593;48.398;10.698;2023-03-01T02:12:13;4.00;47.90
20866;DHT22;10593;48.398;10.698;2023-03-01T02:14:42;4.00;47.90
20866;DHT22;10593;48.398;10.698;2023-03-01T02:17:09;4.00;47.90
20866;DHT22;10593;48.398;10.698;2023-03-01T02:19:53;4.00;48.00
20866;DHT22;10593;48.398;10.698;2023-03-01T02:22:45;4.00;48.10
20866;DHT22;10593;48.398;10.698;2023-03-01T02:28:35;4.00;47.90
20866;DHT22;10593;48.398;10.698;2023-03-01T02:31:05;4.00;48.60
20866;DHT22;10593;48.398;10.698;2023-03-01T02:33:51;4.00;47.90
20866;DHT22;10593;48.398;10.698;2023-03-01T02:36:24;4.00;47.90
20866;DHT22;10593;48.398;10.698;2023-03-01T02:38:56;4.00;48.00
20866;DHT22;10593;48.398;10.698;2023-03-01T02:41:25;4.00;48.00
20866;DHT22;10593;48.398;10.698;2023-03-01T02:43:53;4.00;47.90
20866;DHT22;10593;48.398;10.698;2023-03-01T02:46:24;4.00;47.90
20866;DHT22;10593;48.398;10.698;2023-03-01T02:48:53;3.90;48.00
20866;DHT22;10593;48.398;10.698;2023-03-01T02:51:48;4.00;47.90
20866;DHT22;10593;48.398;10.698;2023-03-01T02:56:51;3.90;47.70
20866;DHT22;10593;48.398;10.698;2023-03-01T02:59:20;3.90;47.80
20866;DHT22;10593;48.398;10.698;2023-03-01T03:01:48;3.90;47.70
20866;DHT22;10593;48.398;10.698;2023-03-01T03:04:16;3.90;47.70
20866;DHT22;10593;48.398;10.698;2023-03-01T03:06:47;3.90;47.90
20866;DHT22;10593;48.398;10.698;2023-03-01T03:09:15;3.90;47.90
20866;DHT22;10593;48.398;10.698;2023-03-01T03:11:42;3.90;47.90
20866;DHT22;10593;48.398;10.698;2023-03-01T03:14:10;3.80;47.80
20866;DHT22;10593;48.398;10.698;2023-03-01T03:16:46;3.90;47.90
20866;DHT22;10593;48.398;10.698;2023-03-01T03:19:17;3.90;47.90
20866;DHT22;10593;48.398;10.698;2023-03-01T03:21:43;3.80;47.70
20866;DHT22;10593;48.398;10.698;2023-03-01T03:24:09;3.80;47.70
20866;DHT22;10593;48.398;10.698;2023-03-01T03:26:35;3.80;47.80
20866;DHT22;10593;48.398;10.698;2023-03-01T03:29:00;3.80;47.80
20866;DHT22;10593;48.398;10.698;2023-03-01T03:31:27;3.80;47.80
20866;DHT22;10593;48.398;10.698;2023-03-01T03:33:52;3.80;47.80
20866;DHT22;10593;48.398;10.698;2023-03-01T03:36:21;3.80;47.80
20866;DHT22;10593;48.398;10.698;2023-03-01T03:38:48;3.80;47.80
20866;DHT22;10593;48.398;10.698;2023-03-01T03:41:15;3.80;47.80
20866;DHT22;10593;48.398;10.698;2023-03-01T03:43:43;3.80;47.80
20866;DHT22;10593;48.398;10.698;2023-03-01T03:46:10;3.70;47.70
20866;DHT22;10593;48.398;10.698;2023-03-01T03:48:42;3.80;47.80
20866;DHT22;10593;48.398;10.698;2023-03-01T03:51:14;3.70;47.80
20866;DHT22;10593;48.398;10.698;2023-03-01T03:53:41;3.80;47.90
20866;DHT22;10593;48.398;10.698;2023-03-01T03:56:08;3.80;47.90
20866;DHT22;10593;48.398;10.698;2023-03-01T03:58:34;3.70;47.80
20866;DHT22;10593;48.398;10.698;2023-03-01T04:01:00;3.70;47.80
20866;DHT22;10593;48.398;10.698;2023-03-01T04:03:27;3.70;47.80
20866;DHT22;10593;48.398;10.698;2023-03-01T04:05:53;3.70;47.90
20866;DHT22;10593;48.398;10.698;2023-03-01T04:08:23;3.80;47.90
20866;DHT22;10593;48.398;10.698;2023-03-01T04:10:51;3.80;47.90
20866;DHT22;10593;48.398;10.698;2023-03-01T04:13:22;3.80;47.90
20866;DHT22;10593;48.398;10.698;2023-03-01T04:15:51;3.70;47.80
20866;DHT22;10593;48.398;10.698;2023-03-01T04:18:19;3.80;47.80
20866;DHT22;10593;48.398;10.698;2023-03-01T04:20:47;3.70;47.80
20866;DHT22;10593;48.398;10.698;2023-03-01T04:23:15;3.70;47.80
20866;DHT22;10593;48.398;10.698;2023-03-01T04:26:11;3.70;47.80
20866;DHT22;10593;48.398;10.698;2023-03-01T04:28:40;3.70;47.90
20866;DHT22;10593;48.398;10.698;2023-03-01T04:31:15;3.70;47.90
20866;DHT22;10593;48.398;10.698;2023-03-01T04:33:46;3.70;47.90
20866;DHT22;10593;48.398;10.698;2023-03-01T04:36:18;3.70;47.90
20866;DHT22;10593;48.398;10.698;2023-03-01T04:38:45;3.70;47.90
20866;DHT22;10593;48.398;10.698;2023-03-01T04:41:16;3.70;47.90
20866;DHT22;10593;48.398;10.698;2023-03-01T04:43:43;3.70;47.90
20866;DHT22;10593;48.398;10.698;2023-03-01T04:46:12;3.70;47.90
20866;DHT22;10593;48.398;10.698;2023-03-01T04:48:41;3.70;47.90
20866;DHT22;10593;48.398;10.698;2023-03-01T04:51:08;3.70;47.90
20866;DHT22;10593;48.398;10.698;2023-03-01T04:53:37;3.70;47.90
20866;DHT22;10593;48.398;10.698;2023-03-01T04:56:03;3.70;48.00
20866;DHT22;10593;48.398;10.698;2023-03-01T04:58:29;3.70;47.80
20866;DHT22;10593;48.398;10.698;2023-03-01T05:00:55;3.70;47.80
20866;DHT22;10593;48.398;10.698;2023-03-01T05:03:21;3.70;47.80
20866;DHT22;10593;48.398;10.698;2023-03-01T05:05:49;3.60;47.80
20866;DHT22;10593;48.398;10.698;2023-03-01T05:08:17;3.70;47.80
20866;DHT22;10593;48.398;10.698;2023-03-01T05:10:53;3.70;47.80
20866;DHT22;10593;48.398;10.698;2023-03-01T05:13:20;3.60;47.70
20866;DHT22;10593;48.398;10.698;2023-03-01T05:15:49;3.60;47.70
20866;DHT22;10593;48.398;10.698;2023-03-01T05:18:19;3.60;47.70
20866;DHT22;10593;48.398;10.698;2023-03-01T05:20:46;3.60;47.70
20866;DHT22;10593;48.398;10.698;2023-03-01T05:23:12;3.60;47.60
20866;DHT22;10593;48.398;10.698;2023-03-01T05:25:38;3.60;47.60
20866;DHT22;10593;48.398;10.698;2023-03-01T05:28:07;3.60;47.60
20866;DHT22;10593;48.398;10.698;2023-03-01T05:30:36;3.60;47.50
20866;DHT22;10593;48.398;10.698;2023-03-01T05:33:04;3.60;47.50
20866;DHT22;10593;48.398;10.698;2023-03-01T05:35:35;3.60;47.50
20866;DHT22;10593;48.398;10.698;2023-03-01T05:38:02;3.50;47.40
20866;DHT22;10593;48.398;10.698;2023-03-01T05:40:27;3.50;47.40
20866;DHT22;10593;48.398;10.698;2023-03-01T05:42:55;3.50;47.40
20866;DHT22;10593;48.398;10.698;2023-03-01T05:45:24;3.50;47.40
20866;DHT22;10593;48.398;10.698;2023-03-01T05:47:51;3.40;47.40
20866;DHT22;10593;48.398;10.698;2023-03-01T05:50:20;3.50;47.60
20866;DHT22;10593;48.398;10.698;2023-03-01T05:52:57;3.40;47.50
20866;DHT22;10593;48.398;10.698;2023-03-01T05:55:28;3.40;47.50
20866;DHT22;10593;48.398;10.698;2023-03-01T05:58:01;3.40;47.50
20866;DHT22;10593;48.398;10.698;2023-03-01T06:00:29;3.40;47.50
20866;DHT22;10593;48.398;10.698;2023-03-01T06:02:56;3.40;47.50
20866;DHT22;10593;48.398;10.698;2023-03-01T06:05:23;3.40;47.50
20866;DHT22;10593;48.398;10.698;2023-03-01T06:07:49;3.40;47.50
20866;DHT22;10593;48.398;10.698;2023-03-01T06:10:16;3.40;47.50
20866;DHT22;10593;48.398;10.698;2023-03-01T06:12:43;3.40;47.50
20866;DHT22;10593;48.398;10.698;2023-03-01T06:15:11;3.40;47.50
20866;DHT22;10593;48.398;10.698;2023-03-01T06:17:40;3.40;47.50
20866;DHT22;10593;48.398;10.698;2023-03-01T06:20:19;3.30;47.40
20866;DHT22;10593;48.398;10.698;2023-03-01T06:22:47;3.30;47.50
20866;DHT22;10593;48.398;10.698;2023-03-01T06:25:16;3.30;47.40
20866;DHT22;10593;48.398;10.698;2023-03-01T06:27:44;3.30;47.40
20866;DHT22;10593;48.398;10.698;2023-03-01T06:30:13;3.30;47.50
20866;DHT22;10593;48.398;10.698;2023-03-01T06:32:41;3.30;47.50
20866;DHT22;10593;48.398;10.698;2023-03-01T06:35:10;3.30;47.50
20866;DHT22;10593;48.398;10.698;2023-03-01T06:37:38;3.30;47.50
20866;DHT22;10593;48.398;10.698;2023-03-01T06:40:05;3.30;47.50
20866;DHT22;10593;48.398;10.698;2023-03-01T06:42:40;3.30;47.50
20866;DHT22;10593;48.398;10.698;2023-03-01T06:45:08;3.30;47.50
20866;DHT22;10593;48.398;10.698;2023-03-01T06:47:34;3.30;47.50
20866;DHT22;10593;48.398;10.698;2023-03-01T06:50:01;3.20;47.50
20866;DHT22;10593;48.398;10.698;2023-03-01T06:52:28;3.20;47.50
20866;DHT22;10593;48.398;10.698;2023-03-01T06:54:53;3.20;47.50
20866;DHT22;10593;48.398;10.698;2023-03-01T06:57:19;3.20;47.60
20866;DHT22;10593;48.398;10.698;2023-03-01T06:59:46;3.20;47.60
20866;DHT22;10593;48.398;10.698;2023-03-01T07:02:13;3.20;47.70
20866;DHT22;10593;48.398;10.698;2023-03-01T07:04:40;3.20;47.80
20866;DHT22;10593;48.398;10.698;2023-03-01T07:07:06;3.20;47.80
20866;DHT22;10593;48.398;10.698;2023-03-01T07:09:32;3.20;47.80
20866;DHT22;10593;48.398;10.698;2023-03-01T07:11:58;3.20;47.90
20866;DHT22;10593;48.398;10.698;2023-03-01T07:14:24;3.20;47.90
20866;DHT22;10593;48.398;10.698;2023-03-01T07:16:51;3.20;47.90
20866;DHT22;10593;48.398;10.698;2023-03-01T07:19:18;3.20;47.90
20866;DHT22;10593;48.398;10.698;2023-03-01T07:21:43;3.20;47.90
20866;DHT22;10593;48.398;10.698;2023-03-01T07:24:09;3.20;47.90
20866;DHT22;10593;48.398;10.698;2023-03-01T07:26:36;3.20;47.90
20866;DHT22;10593;48.398;10.698;2023-03-01T07:29:03;3.20;47.90
20866;DHT22;10593;48.398;10.698;2023-03-01T07:31:30;3.20;47.90
20866;DHT22;10593;48.398;10.698;2023-03-01T07:33:56;3.20;47.90
20866;DHT22;10593;48.398;10.698;2023-03-01T07:36:23;3.30;48.00
20866;DHT22;10593;48.398;10.698;2023-03-01T07:38:50;3.30;48.00
20866;DHT22;10593;48.398;10.698;2023-03-01T07:41:16;3.30;48.00
20866;DHT22;10593;48.398;10.698;2023-03-01T07:43:41;3.30;48.00
20866;DHT22;10593;48.398;10.698;2023-03-01T07:46:07;3.30;47.90
20866;DHT22;10593;48.398;10.698;2023-03-01T07:48:33;3.30;47.80
20866;DHT22;10593;48.398;10.698;2023-03-01T07:51:00;3.30;47.90
20866;DHT22;10593;48.398;10.698;2023-03-01T07:53:26;3.30;47.80
20866;DHT22;10593;48.398;10.698;2023-03-01T07:56:07;3.30;47.80
20866;DHT22;10593;48.398;10.698;2023-03-01T07:58:39;3.30;47.90
20866;DHT22;10593;48.398;10.698;2023-03-01T08:01:08;3.30;47.90
20866;DHT22;10593;48.398;10.698;2023-03-01T08:03:35;3.30;47.90
20866;DHT22;10593;48.398;10.698;2023-03-01T08:06:03;3.30;47.90
20866;DHT22;10593;48.398;10.698;2023-03-01T08:08:31;3.30;47.80
20866;DHT22;10593;48.398;10.698;2023-03-01T08:11:02;3.30;47.80
20866;DHT22;10593;48.398;10.698;2023-03-01T08:13:30;3.30;47.90
20866;DHT22;10593;48.398;10.698;2023-03-01T08:16:03;3.40;47.90
20866;DHT22;10593;48.398;10.698;2023-03-01T08:18:31;3.40;47.80
20866;DHT22;10593;48.398;10.698;2023-03-01T08:21:05;3.40;47.80
20866;DHT22;10593;48.398;10.698;2023-03-01T08:23:35;3.40;47.80
20866;DHT22;10593;48.398;10.698;2023-03-01T08:26:13;3.40;47.80
20866;DHT22;10593;48.398;10.698;2023-03-01T08:28:41;3.40;47.80
20866;DHT22;10593;48.398;10.698;2023-03-01T08:33:54;3.50;47.90
20866;DHT22;10593;48.398;10.698;2023-03-01T08:36:22;3.50;47.80
20866;DHT22;10593;48.398;10.698;2023-03-01T08:38:53;3.50;47.70
20866;DHT22;10593;48.398;10.698;2023-03-01T08:41:19;3.50;47.70
20866;DHT22;10593;48.398;10.698;2023-03-01T08:43:45;3.50;47.70
20866;DHT22;10593;48.398;10.698;2023-03-01T08:46:12;3.50;47.80
20866;DHT22;10593;48.398;10.698;2023-03-01T08:48:38;3.60;47.80
20866;DHT22;10593;48.398;10.698;2023-03-01T08:51:12;3.60;47.80
20866;DHT22;10593;48.398;10.698;2023-03-01T08:53:39;3.60;47.80
20866;DHT22;10593;48.398;10.698;2023-03-01T08:56:07;3.60;47.80
20866;DHT22;10593;48.398;10.698;2023-03-01T08:58:33;3.60;47.80
20866;DHT22;10593;48.398;10.698;2023-03-01T09:00:59;3.60;47.80
20866;DHT22;10593;48.398;10.698;2023-03-01T09:03:25;3.70;47.90
20866;DHT22;10593;48.398;10.698;2023-03-01T09:05:52;3.70;47.70
20866;DHT22;10593;48.398;10.698;2023-03-01T09:08:19;3.70;47.70
20866;DHT22;10593;48.398;10.698;2023-03-01T09:10:45;3.70;47.70
20866;DHT22;10593;48.398;10.698;2023-03-01T09:13:11;3.70;47.60
20866;DHT22;10593;48.398;10.698;2023-03-01T09:15:37;3.80;47.70
20866;DHT22;10593;48.398;10.698;2023-03-01T09:18:04;3.80;47.60
20866;DHT22;10593;48.398;10.698;2023-03-01T09:20:31;3.80;47.50
20866;DHT22;10593;48.398;10.698;2023-03-01T09:22:57;3.80;47.60
20866;DHT22;10593;48.398;10.698;2023-03-01T09:25:23;3.80;47.50
20866;DHT22;10593;48.398;10.698;2023-03-01T09:27:52;3.80;47.60
20866;DHT22;10593;48.398;10.698;2023-03-01T09:30:19;3.80;47.60
20866;DHT22;10593;48.398;10.698;2023-03-01T09:32:46;3.80;47.50
20866;DHT22;10593;48.398;10.698;2023-03-01T09:35:12;3.80;47.40
20866;DHT22;10593;48.398;10.698;2023-03-01T09:37:38;3.80;47.60
20866;DHT22;10593;48.398;10.698;2023-03-01T09:40:15;3.80;47.60
20866;DHT22;10593;48.398;10.698;2023-03-01T09:42:58;3.90;47.70
20866;DHT22;10593;48.398;10.698;2023-03-01T09:45:35;3.90;47.80
20866;DHT22;10593;48.398;10.698;2023-03-01T09:48:12;3.90;47.70
20866;DHT22;10593;48.398;10.698;2023-03-01T09:50:49;3.90;47.60
20866;DHT22;10593;48.398;10.698;2023-03-01T09:53:27;3.90;47.50
20866;DHT22;10593;48.398;10.698;2023-03-01T09:56:05;4.00;47.60
20866;DHT22;10593;48.398;10.698;2023-03-01T09:59:05;4.00;47.50
20866;DHT22;10593;48.398;10.698;2023-03-01T10:01:50;4.00;47.50
20866;DHT22;10593;48.398;10.698;2023-03-01T10:04:53;4.00;47.50
20866;DHT22;10593;48.398;10.698;2023-03-01T10:10:34;4.10;47.50
20866;DHT22;10593;48.398;10.698;2023-03-01T10:13:16;4.20;47.60
20866;DHT22;10593;48.398;10.698;2023-03-01T10:16:11;4.20;47.60
20866;DHT22;10593;48.398;10.698;2023-03-01T10:18:41;4.20;47.50
20866;DHT22;10593;48.398;10.698;2023-03-01T10:21:20;4.20;47.60
20866;DHT22;10593;48.398;10.698;2023-03-01T10:23:46;4.30;47.80
20866;DHT22;10593;48.398;10.698;2023-03-01T10:26:38;4.30;47.70
20866;DHT22;10593;48.398;10.698;2023-03-01T10:29:39;4.40;47.70
20866;DHT22;10593;48.398;10.698;2023-03-01T10:32:12;4.40;47.70
20866;DHT22;10593;48.398;10.698;2023-03-01T10:34:38;4.50;47.80
20866;DHT22;10593;48.398;10.698;2023-03-01T10:37:16;4.50;47.80
20866;DHT22;10593;48.398;10.698;2023-03-01T10:40:07;4.50;47.80
20866;DHT22;10593;48.398;10.698;2023-03-01T10:42:46;4.60;47.90
20866;DHT22;10593;48.398;10.698;2023-03-01T10:48:15;4.60;47.80
20866;DHT22;10593;48.398;10.698;2023-03-01T10:50:46;4.70;48.00
20866;DHT22;10593;48.398;10.698;2023-03-01T10:53:40;4.70;47.90
20866;DHT22;10593;48.398;10.698;2023-03-01T10:56:12;4.80;47.90
20866;DHT22;10593;48.398;10.698;2023-03-01T10:58:41;4.80;47.90
20866;DHT22;10593;48.398;10.698;2023-03-01T11:04:10;4.90;47.90
20866;DHT22;10593;48.398;10.698;2023-03-01T11:06:40;4.90;47.90
20866;DHT22;10593;48.398;10.698;2023-03-01T11:09:21;5.00;48.00
20866;DHT22;10593;48.398;10.698;2023-03-01T11:11:56;5.00;48.10
20866;DHT22;10593;48.398;10.698;2023-03-01T11:14:28;5.00;48.00
20866;DHT22;10593;48.398;10.698;2023-03-01T11:17:11;5.10;48.20
20866;DHT22;10593;48.398;10.698;2023-03-01T11:19:40;5.20;48.30
20866;DHT22;10593;48.398;10.698;2023-03-01T11:22:16;5.20;48.00
20866;DHT22;10593;48.398;10.698;2023-03-01T11:24:53;5.20;47.70
20866;DHT22;10593;48.398;10.698;2023-03-01T11:30:18;5.30;47.80
20866;DHT22;10593;48.398;10.698;2023-03-01T11:33:13;5.40;47.80
20866;DHT22;10593;48.398;10.698;2023-03-01T11:35:55;5.40;47.50
20866;DHT22;10593;48.398;10.698;2023-03-01T11:38:26;5.40;47.50
20866;DHT22;10593;48.398;10.698;2023-03-01T11:41:16;5.50;47.50
20866;DHT22;10593;48.398;10.698;2023-03-01T11:43:54;5.50;47.20
20866;DHT22;10593;48.398;10.698;2023-03-01T11:52:07;5.60;47.20
20866;DHT22;10593;48.398;10.698;2023-03-01T11:55:07;5.60;47.40
20866;DHT22;10593;48.398;10.698;2023-03-01T12:00:54;5.70;47.30
20866;DHT22;10593;48.398;10.698;2023-03-01T12:12:24;5.80;47.50
20866;DHT22;10593;48.398;10.698;2023-03-01T12:15:45;5.90;47.40
20866;DHT22;10593;48.398;10.698;2023-03-01T12:24:44;6.00;47.40
20866;DHT22;10593;48.398;10.698;2023-03-01T12:27:32;6.00;47.40
20866;DHT22;10593;48.398;10.698;2023-03-01T12:39:44;6.10;47.30
20866;DHT22;10593;48.398;10.698;2023-03-01T12:42:41;6.20;47.60
20866;DHT22;10593;48.398;10.698;2023-03-01T12:48:37;6.20;47.40
20866;DHT22;10593;48.398;10.698;2023-03-01T12:51:24;6.20;47.20
20866;DHT22;10593;48.398;10.698;2023-03-01T12:53:55;6.30;47.20
20866;DHT22;10593;48.398;10.698;2023-03-01T12:56:25;6.30;47.20
20866;DHT22;10593;48.398;10.698;2023-03-01T12:59:17;6.30;47.20
20866;DHT22;10593;48.398;10.698;2023-03-01T13:02:12;6.30;47.30
20866;DHT22;10593;48.398;10.698;2023-03-01T13:07:50;6.40;47.20
20866;DHT22;10593;48.398;10.698;2023-03-01T13:13:25;6.40;47.70
20866;DHT22;10593;48.398;10.698;2023-03-01T13:15:53;6.50;47.20
20866;DHT22;10593;48.398;10.698;2023-03-01T13:20:47;6.50;47.40
20866;DHT22;10593;48.398;10.698;2023-03-01T13:34:03;6.60;47.30
20866;DHT22;10593;48.398;10.698;2023-03-01T13:39:33;6.70;47.20
20866;DHT22;10593;48.398;10.698;2023-03-01T13:42:35;6.70;46.90
20866;DHT22;10593;48.398;10.698;2023-03-01T13:45:34;6.80;46.80
20866;DHT22;10593;48.398;10.698;2023-03-01T13:48:11;6.80;46.70
20866;DHT22;10593;48.398;10.698;2023-03-01T13:50:49;6.80;46.90
20866;DHT22;10593;48.398;10.698;2023-03-01T13:53:21;6.80;46.80
20866;DHT22;10593;48.398;10.698;2023-03-01T13:55:56;6.90;47.00
20866;DHT22;10593;48.398;10.698;2023-03-01T13:58:33;6.90;46.90
20866;DHT22;10593;48.398;10.698;2023-03-01T14:01:32;6.90;46.70
20866;DHT22;10593;48.398;10.698;2023-03-01T14:04:00;6.90;46.60
20866;DHT22;10593;48.398;10.698;2023-03-01T14:06:29;7.00;46.90
20866;DHT22;10593;48.398;10.698;2023-03-01T14:14:51;7.10;46.40
20866;DHT22;10593;48.398;10.698;2023-03-01T14:17:52;7.00;46.70
20866;DHT22;10593;48.398;10.698;2023-03-01T14:20:27;7.10;46.60
20866;DHT22;10593;48.398;10.698;2023-03-01T14:22:59;7.10;46.60
20866;DHT22;10593;48.398;10.698;2023-03-01T14:25:35;7.10;46.50
20866;DHT22;10593;48.398;10.698;2023-03-01T14:28:19;7.20;46.80
20866;DHT22;10593;48.398;10.698;2023-03-01T14:30:51;7.20;46.70
20866;DHT22;10593;48.398;10.698;2023-03-01T14:36:10;7.20;46.70
20866;DHT22;10593;48.398;10.698;2023-03-01T14:38:47;7.30;46.60
20866;DHT22;10593;48.398;10.698;2023-03-01T14:41:22;7.30;46.60
20866;DHT22;10593;48.398;10.698;2023-03-01T14:44:19;7.30;46.60
20866;DHT22;10593;48.398;10.698;2023-03-01T14:46:53;7.30;46.60
20866;DHT22;10593;48.398;10.698;2023-03-01T14:49:30;7.30;46.60
20866;DHT22;10593;48.398;10.698;2023-03-01T14:52:05;7.40;47.30
20866;DHT22;10593;48.398;10.698;2023-03-01T14:54:43;7.40;46.70
20866;DHT22;10593;48.398;10.698;2023-03-01T14:57:21;7.40;46.70
20866;DHT22;10593;48.398;10.698;2023-03-01T14:59:50;7.40;46.60
20866;DHT22;10593;48.398;10.698;2023-03-01T15:02:23;7.40;46.70
20866;DHT22;10593;48.398;10.698;2023-03-01T15:04:52;7.40;46.70
20866;DHT22;10593;48.398;10.698;2023-03-01T15:07:29;7.40;46.70
20866;DHT22;10593;48.398;10.698;2023-03-01T15:10:34;7.50;46.80
20866;DHT22;10593;48.398;10.698;2023-03-01T15:13:24;7.50;46.50
20866;DHT22;10593;48.398;10.698;2023-03-01T15:15:53;7.50;46.30
20866;DHT22;10593;48.398;10.698;2023-03-01T15:18:29;7.50;46.50
20866;DHT22;10593;48.398;10.698;2023-03-01T15:20:56;7.50;46.40
20866;DHT22;10593;48.398;10.698;2023-03-01T15:23:34;7.50;46.40
20866;DHT22;10593;48.398;10.698;2023-03-01T15:26:02;7.50;46.50
20866;DHT22;10593;48.398;10.698;2023-03-01T15:28:34;7.50;46.40
20866;DHT22;10593;48.398;10.698;2023-03-01T15:31:23;7.50;46.40
20866;DHT22;10593;48.398;10.698;2023-03-01T15:33:51;7.60;46.40
20866;DHT22;10593;48.398;10.698;2023-03-01T15:36:43;7.60;46.50
20866;DHT22;10593;48.398;10.698;2023-03-01T15:39:40;7.60;46.60
20866;DHT22;10593;48.398;10.698;2023-03-01T15:45:19;7.60;46.40
20866;DHT22;10593;48.398;10.698;2023-03-01T15:47:58;7.60;46.30
20866;DHT22;10593;48.398;10.698;2023-03-01T15:50:32;7.60;46.50
20866;DHT22;10593;48.398;10.698;2023-03-01T15:53:01;7.70;46.50
20866;DHT22;10593;48.398;10.698;2023-03-01T15:55:32;7.70;46.60
20866;DHT22;10593;48.398;10.698;2023-03-01T15:58:15;7.70;46.50
20866;DHT22;10593;48.398;10.698;2023-03-01T16:00:44;7.70;46.50
20866;DHT22;10593;48.398;10.698;2023-03-01T16:03:12;7.70;46.60
20866;DHT22;10593;48.398;10.698;2023-03-01T16:05:38;7.70;46.50
20866;DHT22;10593;48.398;10.698;2023-03-01T16:08:05;7.70;46.50
20866;DHT22;10593;48.398;10.698;2023-03-01T16:10:32;7.70;46.50
20866;DHT22;10593;48.398;10.698;2023-03-01T16:12:59;7.70;46.40
20866;DHT22;10593;48.398;10.698;2023-03-01T16:15:28;7.80;46.50
20866;DHT22;10593;48.398;10.698;2023-03-01T16:17:56;7.80;46.50
20866;DHT22;10593;48.398;10.698;2023-03-01T16:20:24;7.80;46.50
20866;DHT22;10593;48.398;10.698;2023-03-01T16:22:52;7.80;47.00
20866;DHT22;10593;48.398;10.698;2023-03-01T16:25:20;7.80;46.50
20866;DHT22;10593;48.398;10.698;2023-03-01T16:27:48;7.80;46.50
20866;DHT22;10593;48.398;10.698;2023-03-01T16:30:18;7.80;46.50
20866;DHT22;10593;48.398;10.698;2023-03-01T16:32:46;7.80;46.40
20866;DHT22;10593;48.398;10.698;2023-03-01T16:35:15;7.80;46.40
20866;DHT22;10593;48.398;10.698;2023-03-01T16:37:42;7.80;46.30
20866;DHT22;10593;48.398;10.698;2023-03-01T16:40:28;7.80;46.30
20866;DHT22;10593;48.398;10.698;2023-03-01T16:42:56;7.80;46.20
20866;DHT22;10593;48.398;10.698;2023-03-01T16:45:28;7.80;46.20
20866;DHT22;10593;48.398;10.698;2023-03-01T16:47:58;7.80;46.20
20866;DHT22;10593;48.398;10.698;2023-03-01T16:50:23;7.80;46.10
20866;DHT22;10593;48.398;10.698;2023-03-01T16:52:49;7.80;46.20
20866;DHT22;10593;48.398;10.698;2023-03-01T16:55:15;7.80;46.10
20866;DHT22;10593;48.398;10.698;2023-03-01T16:57:41;7.80;46.20
20866;DHT22;10593;48.398;10.698;2023-03-01T17:00:08;7.80;46.20
20866;DHT22;10593;48.398;10.698;2023-03-01T17:02:36;7.70;46.10
20866;DHT22;10593;48.398;10.698;2023-03-01T17:05:02;7.70;46.00
20866;DHT22;10593;48.398;10.698;2023-03-01T17:07:32;7.70;46.60
20866;DHT22;10593;48.398;10.698;2023-03-01T17:10:00;7.70;46.00
20866;DHT22;10593;48.398;10.698;2023-03-01T17:12:26;7.70;46.10
20866;DHT22;10593;48.398;10.698;2023-03-01T17:14:53;7.70;46.10
20866;DHT22;10593;48.398;10.698;2023-03-01T17:17:18;7.70;46.10
20866;DHT22;10593;48.398;10.698;2023-03-01T17:19:44;7.70;46.10
20866;DHT22;10593;48.398;10.698;2023-03-01T17:22:10;7.70;46.10
20866;DHT22;10593;48.398;10.698;2023-03-01T17:24:39;7.70;46.10
20866;DHT22;10593;48.398;10.698;2023-03-01T17:27:06;7.70;46.10
20866;DHT22;10593;48.398;10.698;2023-03-01T17:29:33;7.70;46.10
20866;DHT22;10593;48.398;10.698;2023-03-01T17:31:59;7.70;46.10
20866;DHT22;10593;48.398;10.698;2023-03-01T17:34:25;7.70;46.10
20866;DHT22;10593;48.398;10.698;2023-03-01T17:36:51;7.70;46.10
20866;DHT22;10593;48.398;10.698;2023-03-01T17:39:18;7.70;46.10
20866;DHT22;10593;48.398;10.698;2023-03-01T17:41:53;7.60;46.50
20866;DHT22;10593;48.398;10.698;2023-03-01T17:44:19;7.60;46.00
20866;DHT22;10593;48.398;10.698;2023-03-01T17:46:45;7.60;46.00